Time;durP1;ratioP1;P1;durP2;ratioP2;P2;SDS_P1;SDS_P2;PMS_P1;PMS_P2;Temp;Humidity;BMP_temperature;BMP_pressure;BME280_temperature;BME280_humidity;BME280_pressure;Samples;Min_cycle;Max_cycle;Signal;HPM_P1;HPM_P2
2023/12/28 00:01:33;;;;;;;6.80;4.30;;;9.20;99.90;;;;;;5080344;28;20044;-76
2023/12/28 00:03:59;;;;;;;5.78;4.10;;;9.20;99.90;;;;;;5058679;28;20513;-75
2023/12/28 00:06:24;;;;;;;5.75;3.83;;;9.20;99.90;;;;;;5080016;28;20498;-76
2023/12/28 00:08:51;;;;;;;6.13;4.40;;;9.30;99.90;;;;;;5050035;28;20456;-75
2023/12/28 00:11:16;;;;;;;7.55;4.40;;;9.30;99.90;;;;;;5069591;28;20052;-75
2023/12/28 00:13:42;;;;;;;5.30;4.20;;;9.30;99.90;;;;;;5062978;28;20097;-76
2023/12/28 00:16:08;;;;;;;6.53;4.68;;;9.40;99.90;;;;;;5066015;28;20491;-75
2023/12/28 00:18:34;;;;;;;6.82;4.43;;;9.40;99.90;;;;;;5057378;28;20603;-76
2023/12/28 00:20:59;;;;;;;8.27;4.50;;;9.40;99.90;;;;;;5062222;27;20375;-75
2023/12/28 00:23:25;;;;;;;6.05;4.18;;;9.40;99.90;;;;;;5062625;28;20332;-75
2023/12/28 00:25:51;;;;;;;7.45;4.68;;;9.40;99.90;;;;;;5062763;28;20043;-76
2023/12/28 00:28:17;;;;;;;7.00;4.35;;;9.50;99.90;;;;;;5061074;28;20040;-75
2023/12/28 00:30:43;;;;;;;6.60;5.03;;;9.50;99.90;;;;;;5069169;28;20039;-75
2023/12/28 00:33:09;;;;;;;7.75;4.32;;;9.50;99.90;;;;;;5062329;27;20092;-75
2023/12/28 00:35:34;;;;;;;7.43;4.80;;;9.50;99.90;;;;;;5068728;28;20087;-75
2023/12/28 00:38:00;;;;;;;7.65;4.53;;;9.60;99.90;;;;;;5075694;27;20038;-75
2023/12/28 00:40:26;;;;;;;6.30;4.20;;;9.60;99.90;;;;;;5075910;28;20100;-75
2023/12/28 00:42:51;;;;;;;7.10;4.50;;;9.60;99.90;;;;;;5075369;28;20127;-75
2023/12/28 00:45:17;;;;;;;7.72;5.00;;;9.50;99.90;;;;;;5057364;28;20075;-75
2023/12/28 00:47:43;;;;;;;6.78;4.72;;;9.60;99.90;;;;;;5073876;28;20090;-75
2023/12/28 00:50:14;;;;;;;7.80;5.25;;;9.60;99.90;;;;;;5067211;27;20463;-75
2023/12/28 00:52:40;;;;;;;6.63;4.32;;;9.60;99.90;;;;;;5073495;28;20345;-76
2023/12/28 00:55:07;;;;;;;8.13;4.88;;;9.60;99.90;;;;;;5055833;28;20044;-75
2023/12/28 00:57:33;;;;;;;8.20;4.57;;;9.60;99.90;;;;;;5061913;28;20105;-75
2023/12/28 00:59:59;;;;;;;6.38;4.03;;;9.60;99.90;;;;;;5069648;28;20610;-74
2023/12/28 01:02:28;;;;;;;8.32;4.75;;;9.60;99.90;;;;;;5053486;28;20241;-75
2023/12/28 01:04:54;;;;;;;6.90;4.35;;;9.60;99.90;;;;;;5056561;28;20044;-75
2023/12/28 01:07:19;;;;;;;6.53;4.60;;;9.60;99.90;;;;;;5075214;28;20105;-76
2023/12/28 01:09:45;;;;;;;8.50;5.15;;;9.60;99.90;;;;;;5059485;28;20055;-75
2023/12/28 01:12:11;;;;;;;7.00;4.82;;;9.60;99.90;;;;;;5053987;28;20047;-76
2023/12/28 01:14:37;;;;;;;7.75;4.68;;;9.60;99.90;;;;;;5055601;28;20047;-75
2023/12/28 01:17:03;;;;;;;7.68;4.20;;;9.60;99.90;;;;;;5072119;27;20121;-75
2023/12/28 01:19:29;;;;;;;8.35;4.32;;;9.60;99.90;;;;;;5073917;28;20049;-76
2023/12/28 01:21:54;;;;;;;7.40;4.60;;;9.60;99.90;;;;;;5075022;28;20142;-76
2023/12/28 01:24:21;;;;;;;7.80;4.65;;;9.50;99.90;;;;;;5077743;28;20456;-76
2023/12/28 01:26:46;;;;;;;8.73;4.70;;;9.50;99.90;;;;;;5077523;28;20055;-75
2023/12/28 01:29:12;;;;;;;12.38;4.68;;;9.50;99.90;;;;;;5074788;28;20047;-76
2023/12/28 01:31:39;;;;;;;10.25;4.80;;;9.50;99.90;;;;;;5074643;28;20071;-76
2023/12/28 01:34:05;;;;;;;12.13;5.13;;;9.40;99.90;;;;;;5060764;28;21413;-75
2023/12/28 01:36:31;;;;;;;9.95;4.57;;;9.40;99.90;;;;;;5050523;28;20039;-76
2023/12/28 01:38:56;;;;;;;8.48;4.65;;;9.40;99.90;;;;;;5071023;28;20035;-76
2023/12/28 01:41:22;;;;;;;9.38;5.20;;;9.30;99.90;;;;;;5070377;28;20043;-76
2023/12/28 01:43:48;;;;;;;9.23;4.68;;;9.40;99.90;;;;;;5071407;28;20130;-76
2023/12/28 01:46:20;;;;;;;10.40;5.07;;;9.40;99.90;;;;;;5054504;28;20043;-76
2023/12/28 01:48:50;;;;;;;9.20;5.10;;;9.30;99.90;;;;;;5063573;28;20051;-76
2023/12/28 01:51:17;;;;;;;9.68;4.82;;;9.40;99.90;;;;;;5072794;28;20044;-76
2023/12/28 01:53:44;;;;;;;9.40;5.40;;;9.40;99.90;;;;;;5052215;28;20078;-76
2023/12/28 01:56:10;;;;;;;10.35;4.55;;;9.40;99.90;;;;;;5062828;28;20027;-81
2023/12/28 01:58:40;;;;;;;9.70;5.32;;;9.40;99.90;;;;;;5068313;28;20137;-82
2023/12/28 02:01:06;;;;;;;11.48;5.40;;;9.40;99.90;;;;;;5049240;28;20459;-82
2023/12/28 02:03:32;;;;;;;15.00;4.90;;;9.40;99.90;;;;;;5072672;28;20058;-82
2023/12/28 02:06:00;;;;;;;9.70;4.80;;;9.40;99.90;;;;;;5070662;28;20482;-81
2023/12/28 02:08:26;;;;;;;9.02;4.35;;;9.40;99.90;;;;;;5072514;28;20044;-82
2023/12/28 02:10:52;;;;;;;8.80;4.30;;;9.50;99.90;;;;;;5059733;28;20367;-82
2023/12/28 02:13:21;;;;;;;10.88;4.63;;;9.40;99.90;;;;;;5065346;28;20036;-82
2023/12/28 02:16:03;;;;;;;14.35;5.07;;;9.50;99.90;;;;;;5051957;28;20529;-82
2023/12/28 02:18:43;;;;;;;8.50;4.43;;;9.50;99.90;;;;;;5070726;28;20035;-82
2023/12/28 02:21:10;;;;;;;11.02;4.03;;;9.50;99.90;;;;;;5067925;28;20044;-82
2023/12/28 02:23:36;;;;;;;9.63;4.13;;;9.60;99.90;;;;;;5067241;28;20052;-75
2023/12/28 02:26:01;;;;;;;9.15;4.18;;;9.60;99.90;;;;;;5055441;28;20044;-75
2023/12/28 02:28:27;;;;;;;10.52;4.38;;;9.60;99.90;;;;;;5054926;28;20594;-75
2023/12/28 02:30:53;;;;;;;16.10;4.70;;;9.60;99.90;;;;;;5066858;28;20043;-76
2023/12/28 02:33:29;;;;;;;10.75;4.63;;;9.60;99.90;;;;;;5054746;28;20032;-75
2023/12/28 02:35:59;;;;;;;15.15;4.32;;;9.60;99.90;;;;;;5053706;28;20040;-75
2023/12/28 02:38:29;;;;;;;9.53;3.87;;;9.70;99.90;;;;;;5054635;28;20100;-74
2023/12/28 02:40:59;;;;;;;13.43;4.32;;;9.80;99.90;;;;;;5070021;28;20714;-74
2023/12/28 02:43:24;;;;;;;11.35;4.22;;;9.80;99.90;;;;;;5051520;28;20132;-74
2023/12/28 02:45:50;;;;;;;11.27;4.32;;;9.80;99.90;;;;;;5071412;28;20119;-75
2023/12/28 02:48:16;;;;;;;10.82;4.43;;;9.80;99.90;;;;;;5071942;28;20071;-75
2023/12/28 02:50:42;;;;;;;14.52;5.05;;;9.80;99.90;;;;;;5073445;28;20531;-74
2023/12/28 02:53:08;;;;;;;10.80;3.70;;;9.80;99.90;;;;;;5068669;28;20151;-74
2023/12/28 02:55:34;;;;;;;10.98;4.18;;;9.90;99.90;;;;;;5068473;28;20054;-75
2023/12/28 02:57:59;;;;;;;13.18;4.07;;;10.00;99.90;;;;;;5064920;28;20040;-74
2023/12/28 03:00:26;;;;;;;9.10;2.92;;;10.00;99.90;;;;;;5057791;28;20050;-75
2023/12/28 03:02:52;;;;;;;9.88;3.70;;;10.00;99.90;;;;;;5052855;28;20059;-74
2023/12/28 03:05:18;;;;;;;12.82;4.05;;;10.10;99.90;;;;;;5062708;28;20494;-75
2023/12/28 03:07:44;;;;;;;10.88;3.13;;;10.10;99.90;;;;;;5051381;28;20044;-75
2023/12/28 03:10:11;;;;;;;11.07;3.58;;;10.10;99.90;;;;;;5055047;28;20457;-75
2023/12/28 03:12:37;;;;;;;11.35;4.00;;;10.10;99.90;;;;;;5072675;28;20056;-75
2023/12/28 03:15:04;;;;;;;14.93;3.42;;;10.10;99.90;;;;;;5072326;28;20084;-75
2023/12/28 03:17:30;;;;;;;11.02;3.40;;;10.20;99.90;;;;;;5053837;28;20086;-74
2023/12/28 03:19:58;;;;;;;10.85;3.25;;;10.30;99.90;;;;;;5070418;28;20075;-75
2023/12/28 03:22:23;;;;;;;9.27;3.22;;;10.30;99.90;;;;;;5072678;28;20562;-75
2023/12/28 03:24:49;;;;;;;8.15;3.08;;;10.30;99.90;;;;;;5069953;28;20095;-75
2023/12/28 03:27:15;;;;;;;9.95;3.30;;;10.20;99.90;;;;;;5066731;28;20052;-75
2023/12/28 03:29:44;;;;;;;10.57;3.78;;;10.20;99.90;;;;;;5059777;28;20040;-74
2023/12/28 03:32:10;;;;;;;12.20;3.50;;;10.20;99.90;;;;;;5060005;28;20044;-74
2023/12/28 03:34:36;;;;;;;7.50;3.00;;;10.20;99.90;;;;;;5049598;28;20050;-75
2023/12/28 03:37:02;;;;;;;8.68;3.17;;;10.20;99.90;;;;;;5067669;28;20078;-75
2023/12/28 03:39:28;;;;;;;9.02;3.47;;;10.30;99.90;;;;;;5069140;28;20052;-74
2023/12/28 03:41:54;;;;;;;9.50;3.60;;;10.30;99.90;;;;;;5055795;28;20043;-74
2023/12/28 03:44:20;;;;;;;8.75;3.28;;;10.30;99.90;;;;;;5068401;28;20059;-75
2023/12/28 03:46:50;;;;;;;13.18;3.63;;;10.30;99.90;;;;;;5054274;28;20065;-74
2023/12/28 03:49:20;;;;;;;9.95;2.90;;;10.30;99.90;;;;;;5056901;28;20036;-75
2023/12/28 03:51:46;;;;;;;11.25;3.08;;;10.40;99.90;;;;;;5054605;28;20239;-75
2023/12/28 03:54:15;;;;;;;11.38;3.53;;;10.40;99.90;;;;;;5055005;28;20044;-75
2023/12/28 03:56:42;;;;;;;10.38;3.35;;;10.40;99.90;;;;;;5073263;28;20054;-75
2023/12/28 03:59:09;;;;;;;10.73;3.65;;;10.40;99.90;;;;;;5056567;28;20039;-76
2023/12/28 04:01:35;;;;;;;7.93;3.22;;;10.40;99.90;;;;;;5075524;28;20062;-75
2023/12/28 04:04:01;;;;;;;9.38;3.78;;;10.40;99.90;;;;;;5054333;28;20186;-74
2023/12/28 04:06:27;;;;;;;9.00;2.75;;;10.40;99.90;;;;;;5071639;28;20047;-75
2023/12/28 04:08:53;;;;;;;9.13;3.40;;;10.40;99.90;;;;;;5072262;28;20047;-74
2023/12/28 04:11:18;;;;;;;14.95;3.38;;;10.30;99.90;;;;;;5056555;28;20036;-75
2023/12/28 04:13:44;;;;;;;8.98;2.92;;;10.40;99.90;;;;;;5074695;28;20082;-75
2023/12/28 04:16:14;;;;;;;10.45;3.28;;;10.40;99.90;;;;;;5052778;28;20188;-75
2023/12/28 04:18:41;;;;;;;9.85;2.75;;;10.40;99.90;;;;;;5063750;28;20051;-75
2023/12/28 04:21:13;;;;;;;10.10;3.15;;;10.40;99.90;;;;;;5071368;28;20052;-75
2023/12/28 04:23:40;;;;;;;13.63;3.78;;;10.40;99.90;;;;;;5076395;28;20047;-75
2023/12/28 04:26:06;;;;;;;13.52;3.10;;;10.40;99.90;;;;;;5074342;28;20097;-76
2023/12/28 04:28:34;;;;;;;9.63;3.13;;;10.50;99.90;;;;;;5074571;28;20048;-75
2023/12/28 04:31:06;;;;;;;11.45;3.45;;;10.50;99.90;;;;;;5072343;28;20598;-76
2023/12/28 04:33:32;;;;;;;10.43;3.22;;;10.50;99.90;;;;;;5056323;27;20429;-75
2023/12/28 04:36:07;;;;;;;14.18;3.28;;;10.50;99.90;;;;;;5056529;28;20036;-76
2023/12/28 04:38:33;;;;;;;11.32;3.00;;;10.50;99.90;;;;;;5077177;27;20105;-75
2023/12/28 04:41:00;;;;;;;9.63;3.03;;;10.60;99.90;;;;;;5075002;27;20043;-76
2023/12/28 04:43:26;;;;;;;10.18;3.10;;;10.60;99.90;;;;;;5074561;28;20378;-74
2023/12/28 04:45:52;;;;;;;11.38;2.80;;;10.60;99.90;;;;;;5050840;28;20040;-76
2023/12/28 04:48:23;;;;;;;10.02;2.95;;;10.60;99.90;;;;;;5073095;28;20043;-75
2023/12/28 04:50:49;;;;;;;13.75;3.40;;;10.60;99.90;;;;;;5076840;28;20050;-76
2023/12/28 04:53:15;;;;;;;12.80;3.20;;;10.60;99.90;;;;;;5050054;28;20051;-78
2023/12/28 04:55:41;;;;;;;11.82;3.22;;;10.60;99.90;;;;;;5057196;27;20044;-75
2023/12/28 04:58:07;;;;;;;12.52;3.67;;;10.60;99.90;;;;;;5071291;28;20444;-76
2023/12/28 05:00:32;;;;;;;13.05;3.75;;;10.70;99.90;;;;;;5067908;28;20148;-75
2023/12/28 05:02:58;;;;;;;12.90;3.95;;;10.70;99.90;;;;;;5050756;28;20410;-74
2023/12/28 05:05:24;;;;;;;13.93;3.83;;;10.70;99.90;;;;;;5078980;27;20096;-74
2023/12/28 05:07:50;;;;;;;12.55;3.28;;;10.80;99.90;;;;;;5082436;28;20093;-75
2023/12/28 05:10:15;;;;;;;14.65;3.70;;;10.70;99.90;;;;;;5089372;27;20066;-74
2023/12/28 05:12:41;;;;;;;14.68;3.88;;;10.80;99.90;;;;;;5086565;28;20055;-74
2023/12/28 05:15:07;;;;;;;14.70;3.95;;;10.80;99.90;;;;;;5071025;27;20039;-75
2023/12/28 05:17:33;;;;;;;13.50;3.67;;;10.80;99.90;;;;;;5089134;28;20040;-74
2023/12/28 05:19:59;;;;;;;17.67;3.50;;;10.80;99.90;;;;;;5084762;28;20044;-75
2023/12/28 05:22:24;;;;;;;13.93;4.22;;;10.80;99.90;;;;;;5070204;28;20047;-75
2023/12/28 05:24:50;;;;;;;14.93;3.47;;;10.80;99.90;;;;;;5069285;28;20040;-75
2023/12/28 05:27:16;;;;;;;12.63;3.58;;;10.80;99.90;;;;;;5083497;28;20044;-75
2023/12/28 05:29:42;;;;;;;15.32;3.58;;;10.80;99.90;;;;;;5084293;28;20058;-73
2023/12/28 05:32:07;;;;;;;12.00;3.10;;;10.80;99.90;;;;;;5086164;28;20031;-75
2023/12/28 05:34:33;;;;;;;11.82;3.25;;;10.80;99.90;;;;;;5087420;27;20091;-75
2023/12/28 05:36:59;;;;;;;11.88;3.10;;;10.80;99.90;;;;;;5071897;28;20083;-74
2023/12/28 05:39:24;;;;;;;12.05;3.30;;;10.80;99.90;;;;;;5066590;28;20122;-75
2023/12/28 05:41:53;;;;;;;15.25;3.40;;;10.80;99.90;;;;;;5081842;28;20044;-75
2023/12/28 05:44:20;;;;;;;14.70;2.88;;;10.90;99.90;;;;;;5067906;28;20052;-75
2023/12/28 05:46:46;;;;;;;14.15;3.42;;;10.80;99.90;;;;;;5082724;28;20139;-76
2023/12/28 05:49:12;;;;;;;13.00;3.30;;;10.80;99.90;;;;;;5088888;28;20118;-75
2023/12/28 05:51:41;;;;;;;13.45;3.83;;;10.80;99.90;;;;;;5083859;28;20048;-73
2023/12/28 05:54:07;;;;;;;14.15;3.60;;;10.90;99.90;;;;;;5065664;28;20035;-76
2023/12/28 05:56:33;;;;;;;12.82;2.90;;;10.90;99.90;;;;;;5071401;27;20069;-74
2023/12/28 05:58:59;;;;;;;13.00;3.85;;;10.90;99.90;;;;;;5062012;28;20051;-75
2023/12/28 06:01:28;;;;;;;18.27;4.38;;;10.90;99.90;;;;;;5084664;28;20050;-76
2023/12/28 06:03:54;;;;;;;12.70;3.22;;;10.90;99.90;;;;;;5085997;27;20044;-75
2023/12/28 06:06:23;;;;;;;12.43;3.58;;;10.90;99.90;;;;;;5069082;27;20075;-75
2023/12/28 06:08:49;;;;;;;12.50;3.28;;;10.90;99.90;;;;;;5074592;28;20534;-75
2023/12/28 06:11:15;;;;;;;13.50;3.83;;;10.90;99.90;;;;;;5083520;28;20126;-75
2023/12/28 06:13:41;;;;;;;15.90;3.55;;;10.90;99.90;;;;;;5067214;28;21522;-75
2023/12/28 06:16:07;;;;;;;12.82;3.33;;;10.90;99.90;;;;;;5090846;27;20035;-75
2023/12/28 06:18:32;;;;;;;9.77;2.97;;;10.80;99.90;;;;;;5078974;28;20593;-75
2023/12/28 06:20:58;;;;;;;12.05;3.47;;;10.90;99.90;;;;;;5070695;28;20048;-75
2023/12/28 06:23:24;;;;;;;14.05;3.65;;;10.90;99.90;;;;;;5082515;28;20751;-74
2023/12/28 06:25:49;;;;;;;20.08;3.95;;;10.90;99.90;;;;;;5087649;28;20126;-79
2023/12/28 06:28:15;;;;;;;15.23;3.72;;;10.90;99.90;;;;;;5066019;27;20122;-79
2023/12/28 06:30:41;;;;;;;13.10;3.13;;;10.90;99.90;;;;;;5069956;28;20040;-79
2023/12/28 06:33:07;;;;;;;14.70;3.85;;;10.90;99.90;;;;;;5093832;27;20469;-80
2023/12/28 06:35:32;;;;;;;14.55;3.58;;;10.90;99.90;;;;;;5095791;27;20046;-79
2023/12/28 06:37:58;;;;;;;18.17;3.67;;;10.90;99.90;;;;;;5071341;28;20135;-79
2023/12/28 06:40:24;;;;;;;18.38;3.95;;;10.90;99.90;;;;;;5093405;28;20082;-79
2023/12/28 06:42:50;;;;;;;19.25;3.42;;;10.90;99.90;;;;;;5066757;28;20056;-78
2023/12/28 06:45:16;;;;;;;13.75;3.20;;;10.80;99.90;;;;;;5084183;28;20188;-79
2023/12/28 06:47:41;;;;;;;15.43;3.65;;;10.80;99.90;;;;;;5053020;28;20049;-75
2023/12/28 06:50:10;;;;;;;11.20;3.00;;;10.90;99.90;;;;;;5073202;27;20054;-78
2023/12/28 06:52:36;;;;;;;13.10;4.10;;;10.80;99.90;;;;;;5061521;28;20043;-78
2023/12/28 06:55:02;;;;;;;14.45;3.03;;;10.90;99.90;;;;;;5061889;28;20035;-80
2023/12/28 06:57:28;;;;;;;12.73;3.17;;;10.90;99.90;;;;;;5053304;28;20440;-79
2023/12/28 06:59:54;;;;;;;16.10;3.80;;;10.90;99.90;;;;;;5058760;28;20051;-80
2023/12/28 07:02:19;;;;;;;15.60;3.85;;;10.90;99.90;;;;;;5076560;28;20035;-80
2023/12/28 07:04:45;;;;;;;15.52;4.03;;;10.90;99.90;;;;;;5087354;28;20286;-80
2023/12/28 07:07:11;;;;;;;14.40;3.70;;;10.90;99.90;;;;;;5069639;28;20032;-80
2023/12/28 07:09:37;;;;;;;16.30;3.85;;;10.90;99.90;;;;;;5065007;28;20467;-80
2023/12/28 07:12:03;;;;;;;11.18;3.38;;;10.90;99.90;;;;;;5079524;28;20077;-79
2023/12/28 07:14:29;;;;;;;15.50;3.72;;;10.90;99.90;;;;;;5067949;28;20414;-81
2023/12/28 07:16:54;;;;;;;14.20;4.00;;;10.90;99.90;;;;;;5090072;28;20047;-80
2023/12/28 07:19:20;;;;;;;16.63;4.13;;;11.00;99.90;;;;;;5081791;28;20036;-80
2023/12/28 07:21:46;;;;;;;15.85;3.70;;;11.00;99.90;;;;;;5074638;27;20059;-79
2023/12/28 07:24:12;;;;;;;12.45;3.53;;;11.00;99.90;;;;;;5091471;27;20044;-80
2023/12/28 07:26:38;;;;;;;20.50;4.97;;;11.00;99.90;;;;;;5085719;27;20051;-79
2023/12/28 07:29:04;;;;;;;20.27;4.53;;;11.00;99.90;;;;;;5072655;28;20047;-79
2023/12/28 07:31:31;;;;;;;17.33;3.90;;;11.00;99.90;;;;;;5069415;28;20050;-80
2023/12/28 07:33:57;;;;;;;14.13;3.42;;;11.00;99.90;;;;;;5074461;28;20107;-80
2023/12/28 07:36:23;;;;;;;15.95;4.28;;;11.00;99.90;;;;;;5077285;28;20040;-81
2023/12/28 07:38:48;;;;;;;15.50;3.17;;;11.00;99.90;;;;;;5087478;28;20058;-81
2023/12/28 07:41:15;;;;;;;19.40;4.25;;;11.00;99.90;;;;;;5085261;28;20319;-79
2023/12/28 07:43:41;;;;;;;20.63;4.45;;;11.00;99.90;;;;;;5089374;27;20052;-75
2023/12/28 07:46:07;;;;;;;20.33;4.53;;;11.00;99.90;;;;;;5086562;28;20104;-75
2023/12/28 07:48:33;;;;;;;16.67;4.22;;;11.00;99.90;;;;;;5086674;28;20039;-76
2023/12/28 07:50:58;;;;;;;20.13;4.88;;;11.00;99.90;;;;;;5092780;27;20039;-76
2023/12/28 07:53:24;;;;;;;17.75;3.85;;;11.00;99.90;;;;;;5074429;28;20372;-76
2023/12/28 07:55:50;;;;;;;20.60;4.45;;;11.00;99.90;;;;;;5084588;28;20032;-76
2023/12/28 07:58:16;;;;;;;15.82;4.00;;;11.00;99.90;;;;;;5073683;28;20276;-75
2023/12/28 08:00:42;;;;;;;20.70;4.72;;;11.00;99.90;;;;;;5081409;28;20490;-75
2023/12/28 08:03:07;;;;;;;14.45;3.85;;;10.90;99.90;;;;;;5094110;27;20037;-75
2023/12/28 08:05:33;;;;;;;20.13;4.55;;;10.90;99.90;;;;;;5061688;28;20359;-75
2023/12/28 08:07:59;;;;;;;18.40;4.55;;;11.00;99.90;;;;;;5063740;28;20040;-76
2023/12/28 08:10:24;;;;;;;20.08;3.85;;;10.90;99.90;;;;;;5078872;28;20619;-75
2023/12/28 08:12:51;;;;;;;22.42;4.97;;;11.00;99.90;;;;;;5072373;27;20493;-76
2023/12/28 08:15:17;;;;;;;19.60;4.95;;;10.90;99.90;;;;;;5066815;28;20043;-75
2023/12/28 08:17:42;;;;;;;23.85;5.07;;;11.00;99.90;;;;;;5066843;28;20366;-75
2023/12/28 08:20:08;;;;;;;19.02;5.25;;;11.00;99.90;;;;;;5082653;28;20908;-75
2023/12/28 08:22:34;;;;;;;17.35;4.18;;;11.00;99.90;;;;;;5070318;28;20557;-76
2023/12/28 08:25:00;;;;;;;16.20;4.53;;;11.00;99.90;;;;;;5058478;28;20341;-76
2023/12/28 08:27:26;;;;;;;20.45;4.47;;;11.00;99.90;;;;;;5060286;28;20069;-74
2023/12/28 08:29:54;;;;;;;22.88;5.30;;;11.00;99.90;;;;;;5074011;27;20563;-75
2023/12/28 08:32:20;;;;;;;19.65;5.57;;;11.00;99.90;;;;;;5077305;28;20040;-75
2023/12/28 08:34:47;;;;;;;18.20;4.40;;;11.00;99.90;;;;;;5074817;28;20043;-75
2023/12/28 08:37:13;;;;;;;18.23;4.60;;;11.00;99.90;;;;;;5073731;28;20047;-75
2023/12/28 08:39:40;;;;;;;19.83;5.10;;;11.00;99.90;;;;;;5064470;27;20050;-76
2023/12/28 08:42:06;;;;;;;17.10;4.88;;;11.00;99.90;;;;;;5055455;28;20067;-75
2023/12/28 08:44:32;;;;;;;19.75;5.13;;;11.00;99.90;;;;;;5082412;28;20074;-75
2023/12/28 08:46:58;;;;;;;22.98;5.63;;;11.00;99.90;;;;;;5067044;27;20505;-76
2023/12/28 08:49:25;;;;;;;21.20;4.50;;;10.90;99.90;;;;;;5064093;28;20067;-75
2023/12/28 08:51:51;;;;;;;19.75;4.50;;;10.90;99.90;;;;;;5071554;27;20047;-76
2023/12/28 08:54:17;;;;;;;20.48;4.78;;;11.00;99.90;;;;;;5064230;28;20883;-75
2023/12/28 08:56:43;;;;;;;20.65;5.53;;;11.00;99.90;;;;;;5085870;27;20047;-76
2023/12/28 08:59:09;;;;;;;26.02;5.18;;;10.90;99.90;;;;;;5085889;27;20151;-75
2023/12/28 09:01:35;;;;;;;23.88;5.20;;;10.90;99.90;;;;;;5079736;27;20054;-75
2023/12/28 09:04:01;;;;;;;22.13;4.60;;;10.90;99.90;;;;;;5081477;28;20047;-74
2023/12/28 09:06:27;;;;;;;23.92;5.40;;;11.00;99.90;;;;;;5065477;28;20105;-76
2023/12/28 09:08:53;;;;;;;20.60;4.63;;;11.00;99.90;;;;;;5085979;28;20128;-76
2023/12/28 09:11:19;;;;;;;19.83;4.75;;;11.00;99.90;;;;;;5065772;28;20091;-76
2023/12/28 09:13:48;;;;;;;20.08;4.93;;;10.90;99.90;;;;;;5061518;28;20142;-75
2023/12/28 09:16:15;;;;;;;18.23;4.90;;;10.90;99.90;;;;;;5069932;27;20083;-76
2023/12/28 09:18:41;;;;;;;20.90;5.18;;;10.90;99.90;;;;;;5069287;28;20040;-75
2023/12/28 09:21:08;;;;;;;24.88;4.85;;;10.90;99.90;;;;;;5082415;28;20530;-76
2023/12/28 09:23:35;;;;;;;20.50;4.85;;;11.00;99.90;;;;;;5070982;28;20062;-76
2023/12/28 09:26:05;;;;;;;23.02;4.45;;;11.00;99.90;;;;;;5093993;28;20482;-75
2023/12/28 09:28:31;;;;;;;18.80;5.10;;;11.00;99.90;;;;;;5086707;28;20369;-76
2023/12/28 09:30:57;;;;;;;23.40;4.85;;;11.00;99.90;;;;;;5079565;28;20043;-75
2023/12/28 09:33:24;;;;;;;22.38;5.07;;;11.00;99.90;;;;;;5079632;28;20102;-75
2023/12/28 09:35:49;;;;;;;20.77;4.90;;;11.00;99.90;;;;;;5083001;28;20051;-76
2023/12/28 09:38:18;;;;;;;17.60;3.97;;;11.00;99.90;;;;;;5067193;27;20307;-75
2023/12/28 09:40:45;;;;;;;17.60;5.15;;;11.10;99.90;;;;;;5087599;27;20035;-76
2023/12/28 09:43:23;;;;;;;23.23;5.15;;;11.10;99.90;;;;;;5063555;27;20519;-73
2023/12/28 09:45:49;;;;;;;19.05;4.95;;;11.10;99.90;;;;;;5077327;27;20050;-75
2023/12/28 09:48:19;;;;;;;19.10;5.38;;;11.10;99.90;;;;;;5068284;28;20547;-75
2023/12/28 09:50:50;;;;;;;18.58;4.60;;;11.10;99.90;;;;;;5087188;28;20052;-74
2023/12/28 09:53:15;;;;;;;23.77;5.28;;;11.10;99.90;;;;;;5082077;28;20142;-75
2023/12/28 09:55:42;;;;;;;24.00;5.55;;;11.10;99.90;;;;;;5086925;28;20178;-75
2023/12/28 09:58:09;;;;;;;22.05;5.05;;;11.20;99.90;;;;;;5084931;28;20035;-75
2023/12/28 10:00:35;;;;;;;19.17;4.80;;;11.20;99.90;;;;;;5095228;27;20047;-75
2023/12/28 10:03:02;;;;;;;19.83;4.75;;;11.20;99.90;;;;;;5069299;28;20028;-74
2023/12/28 10:05:28;;;;;;;17.13;4.45;;;11.20;99.90;;;;;;5069995;27;20130;-75
2023/12/28 10:07:56;;;;;;;21.83;5.13;;;11.30;99.90;;;;;;5080726;28;20122;-74
2023/12/28 10:10:22;;;;;;;23.20;4.90;;;11.20;99.90;;;;;;5091019;27;20043;-73
2023/12/28 10:12:47;;;;;;;14.43;4.32;;;11.20;99.90;;;;;;5073491;28;20056;-74
2023/12/28 10:15:13;;;;;;;23.08;5.10;;;11.20;99.90;;;;;;5086677;28;20036;-75
2023/12/28 10:17:39;;;;;;;19.67;4.80;;;11.20;99.90;;;;;;5084463;28;20051;-74
2023/12/28 10:20:09;;;;;;;21.17;4.82;;;11.20;99.90;;;;;;5063686;28;20468;-76
2023/12/28 10:22:38;;;;;;;18.52;4.45;;;11.20;99.90;;;;;;5079866;27;20470;-79
2023/12/28 10:25:05;;;;;;;22.80;4.57;;;11.20;99.90;;;;;;5082024;28;20567;-78
2023/12/28 10:27:31;;;;;;;15.93;4.22;;;11.30;99.90;;;;;;5088836;28;20156;-79
2023/12/28 10:29:57;;;;;;;17.95;4.05;;;11.30;99.90;;;;;;5071125;28;20516;-78
2023/12/28 10:32:24;;;;;;;17.48;4.60;;;11.30;99.90;;;;;;5083681;28;20035;-79
2023/12/28 10:34:53;;;;;;;21.33;4.45;;;11.30;99.90;;;;;;5087586;28;20547;-79
2023/12/28 10:37:20;;;;;;;20.45;5.40;;;11.30;99.90;;;;;;5063638;28;20040;-80
2023/12/28 10:39:53;;;;;;;13.40;4.05;;;11.30;99.90;;;;;;5083155;27;20159;-79
2023/12/28 10:42:32;;;;;;;19.55;4.57;;;11.30;99.90;;;;;;5073899;27;20485;-80
2023/12/28 10:45:05;;;;;;;18.33;4.15;;;11.30;99.90;;;;;;5059615;28;20806;-80
2023/12/28 10:47:38;;;;;;;12.90;4.50;;;11.30;99.90;;;;;;5084820;28;20040;-79
2023/12/28 10:50:05;;;;;;;18.85;4.20;;;11.30;99.90;;;;;;5081610;28;20101;-79
2023/12/28 10:52:33;;;;;;;18.33;4.60;;;11.30;99.90;;;;;;5065061;28;20039;-81
2023/12/28 10:55:11;;;;;;;17.25;4.32;;;11.30;99.90;;;;;;5063755;28;20043;-80
2023/12/28 10:58:13;;;;;;;16.40;4.43;;;11.30;99.90;;;;;;5065505;27;20469;-80
2023/12/28 11:00:49;;;;;;;18.60;4.63;;;11.30;99.90;;;;;;5063677;28;20584;-77
2023/12/28 11:03:21;;;;;;;21.90;4.93;;;11.40;99.90;;;;;;5065166;28;20870;-79
2023/12/28 11:05:47;;;;;;;18.42;4.57;;;11.30;99.90;;;;;;5061132;28;20079;-80
2023/12/28 11:08:14;;;;;;;20.05;4.82;;;11.30;99.90;;;;;;5084679;28;20042;-80
2023/12/28 11:10:42;;;;;;;19.38;4.72;;;11.30;99.90;;;;;;5073725;28;20564;-79
2023/12/28 11:13:09;;;;;;;16.50;4.30;;;11.40;99.90;;;;;;5065123;28;20538;-77
2023/12/28 11:15:37;;;;;;;22.88;4.75;;;11.30;99.90;;;;;;5071374;28;20050;-76
2023/12/28 11:18:03;;;;;;;18.52;4.25;;;11.30;99.90;;;;;;5079483;28;20071;-75
2023/12/28 11:20:33;;;;;;;18.15;4.28;;;11.30;99.90;;;;;;5079807;28;20076;-75
2023/12/28 11:22:59;;;;;;;17.85;4.47;;;11.30;99.90;;;;;;5072388;28;20051;-75
2023/12/28 11:25:31;;;;;;;19.55;4.75;;;11.30;99.90;;;;;;5082811;28;20039;-74
2023/12/28 11:27:57;;;;;;;18.20;4.60;;;11.40;99.90;;;;;;5061619;28;20040;-74
2023/12/28 11:30:27;;;;;;;19.20;5.03;;;11.30;99.90;;;;;;5084319;28;20039;-75
2023/12/28 11:32:57;;;;;;;17.73;4.45;;;11.30;99.90;;;;;;5080765;28;20047;-75
2023/12/28 11:35:22;;;;;;;20.90;4.87;;;11.30;99.90;;;;;;5067459;28;20051;-76
2023/12/28 11:37:53;;;;;;;22.13;4.30;;;11.30;99.90;;;;;;5084391;28;20047;-75
2023/12/28 11:40:20;;;;;;;19.00;4.45;;;11.30;99.90;;;;;;5081356;28;20043;-75
2023/12/28 11:42:54;;;;;;;19.98;4.50;;;11.30;99.90;;;;;;5067874;28;20524;-76
2023/12/28 11:45:21;;;;;;;18.48;4.15;;;11.30;99.90;;;;;;5070616;28;20680;-75
2023/12/28 11:47:47;;;;;;;14.40;4.05;;;11.30;99.90;;;;;;5072001;28;20043;-75
2023/12/28 11:50:13;;;;;;;16.67;4.97;;;11.30;99.90;;;;;;5071824;28;20141;-75
2023/12/28 11:52:40;;;;;;;19.23;4.72;;;11.30;99.90;;;;;;5089239;28;20474;-75
2023/12/28 11:55:06;;;;;;;21.35;5.55;;;11.30;99.90;;;;;;5084101;28;20549;-75
2023/12/28 11:57:32;;;;;;;16.42;3.90;;;11.40;99.90;;;;;;5072555;28;20032;-75
2023/12/28 11:59:59;;;;;;;17.77;4.75;;;11.40;99.90;;;;;;5082405;28;20050;-74
2023/12/28 12:02:25;;;;;;;19.48;4.78;;;11.40;99.90;;;;;;5081930;28;20131;-74
2023/12/28 12:04:53;;;;;;;19.27;4.25;;;11.40;99.90;;;;;;5064277;28;20040;-74
2023/12/28 12:07:18;;;;;;;27.52;6.22;;;11.40;99.90;;;;;;5068650;28;20100;-74
2023/12/28 12:09:45;;;;;;;22.80;5.43;;;11.40;99.90;;;;;;5073246;28;20052;-74
2023/12/28 12:12:11;;;;;;;22.05;5.05;;;11.40;99.90;;;;;;5068602;27;20330;-73
2023/12/28 12:14:37;;;;;;;18.92;5.50;;;11.30;99.90;;;;;;5067776;28;20503;-73
2023/12/28 12:17:03;;;;;;;18.48;4.97;;;11.40;99.90;;;;;;5072312;28;20131;-74
2023/12/28 12:19:29;;;;;;;20.10;4.70;;;11.30;99.90;;;;;;5071969;28;20031;-73
2023/12/28 12:21:59;;;;;;;21.27;5.38;;;11.40;99.90;;;;;;5078502;28;20047;-74
2023/12/28 12:24:24;;;;;;;20.70;5.03;;;11.40;99.90;;;;;;5067824;28;20039;-74
2023/12/28 12:26:51;;;;;;;19.88;4.78;;;11.30;99.90;;;;;;5082383;28;20047;-74
2023/12/28 12:29:17;;;;;;;22.50;4.72;;;11.30;99.90;;;;;;5081438;28;20048;-74
2023/12/28 12:31:46;;;;;;;21.63;4.70;;;11.20;99.90;;;;;;5079849;28;20451;-74
2023/12/28 12:34:18;;;;;;;22.90;5.30;;;11.30;99.90;;;;;;5082599;27;20082;-74
2023/12/28 12:36:44;;;;;;;21.70;4.93;;;11.30;99.90;;;;;;5074235;28;20568;-74
2023/12/28 12:39:11;;;;;;;20.42;5.28;;;11.30;99.90;;;;;;5061686;28;20130;-74